createdAt,value
2022-09-20T00:01:11.808Z,97257.53
2022-09-20T00:03:41.992Z,97261.48
2022-09-20T00:06:12.680Z,97259.59
2022-09-20T00:08:40.205Z,97258.02
2022-09-20T00:11:10.816Z,97256.68
2022-09-20T00:13:38.991Z,97256.91
2022-09-20T00:16:10.123Z,97252.10
2022-09-20T00:18:38.021Z,97251.48
2022-09-20T00:21:05.800Z,97245.80
2022-09-20T00:23:34.220Z,97247.69
2022-09-20T00:26:03.514Z,97255.50
2022-09-20T00:28:31.648Z,97249.03
2022-09-20T00:30:59.064Z,97255.44
2022-09-20T00:33:28.696Z,97255.11
2022-09-20T00:35:58.225Z,97253.22
2022-09-20T00:38:25.646Z,97256.13
2022-09-20T00:40:53.249Z,97260.41
2022-09-20T00:43:24.234Z,97263.64
2022-09-20T00:45:51.720Z,97260.14
2022-09-20T00:48:25.581Z,97264.72
2022-09-20T00:50:56.211Z,97256.78
2022-09-20T00:53:27.389Z,97262.37
2022-09-20T00:55:57.892Z,97255.34
2022-09-20T00:58:27.225Z,97259.63
2022-09-20T01:00:56.658Z,97252.05
2022-09-20T01:03:27.051Z,97250.60
2022-09-20T01:05:55.587Z,97241.84
2022-09-20T01:08:25.919Z,97251.78
2022-09-20T01:10:53.756Z,97251.39
2022-09-20T01:13:21.163Z,97250.37
2022-09-20T01:15:49.340Z,97246.09
2022-09-20T01:18:18.061Z,97241.52
2022-09-20T01:20:45.944Z,97241.28
2022-09-20T01:23:33.902Z,97239.16
2022-09-20T01:26:25.917Z,97236.42
2022-09-20T01:29:02.792Z,97233.12
2022-09-20T01:31:33.617Z,97238.38
2022-09-20T01:34:08.176Z,97232.17
2022-09-20T01:36:38.311Z,97241.94
2022-09-20T01:39:18.354Z,97233.28
2022-09-20T01:41:48.742Z,97236.36
2022-09-20T01:44:22.881Z,97237.86
2022-09-20T01:47:11.497Z,97232.20
2022-09-20T01:50:01.074Z,97238.34
2022-09-20T01:52:49.828Z,97236.38
2022-09-20T01:55:42.441Z,97233.38
2022-09-20T01:58:28.694Z,97238.73
2022-09-20T02:01:08.444Z,97237.39
2022-09-20T02:04:10.363Z,97241.67
2022-09-20T02:07:04.311Z,97236.38
2022-09-20T02:09:47.511Z,97234.71
2022-09-20T02:12:35.524Z,97237.39
2022-09-20T02:15:41.821Z,97240.63
2022-09-20T02:18:20.481Z,97237.16
2022-09-20T02:20:54.904Z,97235.59
2022-09-20T02:23:32.229Z,97240.70
2022-09-20T02:26:33.827Z,97238.58
2022-09-20T02:29:38.375Z,97237.00
2022-09-20T02:32:24.457Z,97236.45
2022-09-20T02:35:30.934Z,97237.00
2022-09-20T02:38:17.560Z,97241.58
2022-09-20T02:40:51.734Z,97242.69
2022-09-20T02:43:31.830Z,97237.95
2022-09-20T02:46:12.218Z,97244.16
2022-09-20T02:48:45.573Z,97248.19
2022-09-20T02:51:31.605Z,97244.72
2022-09-20T02:54:13.320Z,97242.89
2022-09-20T02:56:56.329Z,97245.67
2022-09-20T02:59:33.681Z,97251.81
2022-09-20T03:02:11.019Z,97247.56
2022-09-20T03:04:59.008Z,97250.24
2022-09-20T03:07:54.944Z,97245.17
2022-09-20T03:10:48.615Z,97249.98
2022-09-20T03:13:31.874Z,97251.88
2022-09-20T03:16:09.138Z,97253.38
2022-09-20T03:18:49.696Z,97256.78
2022-09-20T03:21:26.707Z,97252.53
2022-09-20T03:24:03.323Z,97250.93
2022-09-20T03:27:00.782Z,97250.56
2022-09-20T03:29:37.662Z,97247.08
2022-09-20T03:32:31.826Z,97253.25
2022-09-20T03:35:05.914Z,97251.09
2022-09-20T03:37:46.084Z,97253.48
2022-09-20T03:40:32.182Z,97252.92
2022-09-20T03:43:12.450Z,97264.98
2022-09-20T03:45:55.694Z,97260.11
2022-09-20T03:48:37.041Z,97265.14
2022-09-20T03:51:34.804Z,97271.52
2022-09-20T03:54:25.858Z,97259.78
2022-09-20T03:57:03.057Z,97265.70
2022-09-20T03:59:50.604Z,97268.45
2022-09-20T04:02:49.811Z,97273.88
2022-09-20T04:05:24.246Z,97277.38
2022-09-20T04:08:31.383Z,97282.73
2022-09-20T04:11:25.677Z,97280.84
2022-09-20T04:14:18.764Z,97281.13
2022-09-20T04:16:57.836Z,97279.56
2022-09-20T04:20:03.669Z,97283.25
2022-09-20T04:22:41.855Z,97289.66
2022-09-20T04:25:33.097Z,97292.34
2022-09-20T04:28:19.275Z,97292.57
2022-09-20T04:30:48.540Z,97296.59
2022-09-20T04:33:28.270Z,97306.46
2022-09-20T04:36:29.931Z,97293.91
2022-09-20T04:39:04.571Z,97293.13
2022-09-20T04:41:55.564Z,97306.03
2022-09-20T04:44:38.899Z,97308.72
2022-09-20T04:47:25.018Z,97307.14
2022-09-20T04:50:06.735Z,97311.89
2022-09-20T04:52:54.963Z,97308.09
2022-09-20T04:55:49.540Z,97305.58
2022-09-20T04:58:43.497Z,97308.52
2022-09-20T05:01:19.138Z,97315.45
2022-09-20T05:03:58.860Z,97314.67
2022-09-20T05:06:38.371Z,97311.98
2022-09-20T05:09:30.308Z,97319.15
2022-09-20T05:12:38.182Z,97315.39
2022-09-20T05:22:42.514Z,97319.48
2022-09-20T05:59:27.092Z,97319.11
2022-09-20T06:02:40.175Z,97323.45
2022-09-20T06:09:37.784Z,97324.70
2022-09-20T06:12:23.334Z,97329.66
2022-09-20T06:15:06.356Z,97329.28
2022-09-20T06:18:03.503Z,97332.91
2022-09-20T06:20:51.898Z,97333.69
2022-09-20T06:23:49.974Z,97337.55
2022-09-20T06:26:46.755Z,97338.18
2022-09-20T06:32:31.558Z,97335.88
2022-09-20T06:35:20.106Z,97336.28
2022-09-20T06:38:13.397Z,97337.30
2022-09-20T06:41:10.133Z,97342.48
2022-09-20T06:43:54.702Z,97336.63
2022-09-20T06:46:34.391Z,97343.02
2022-09-20T06:49:31.831Z,97341.55
2022-09-20T06:55:06.040Z,97341.72
2022-09-20T06:57:39.490Z,97343.61
2022-09-20T07:00:22.577Z,97353.19
2022-09-20T07:02:58.422Z,97348.49
2022-09-20T07:05:38.378Z,97354.94
2022-09-20T07:08:10.114Z,97348.57
2022-09-20T07:10:45.907Z,97348.83
2022-09-20T07:13:19.461Z,97355.72
2022-09-20T07:15:50.788Z,97351.56
2022-09-20T07:18:27.527Z,97351.95
2022-09-20T07:20:58.875Z,97352.19
2022-09-20T07:23:29.569Z,97359.55
2022-09-20T07:26:00.473Z,97357.06
2022-09-20T07:28:29.206Z,97360.40
2022-09-20T07:31:01.334Z,97350.56
2022-09-20T07:33:31.727Z,97354.23
2022-09-20T07:36:01.263Z,97353.59
2022-09-20T07:38:31.222Z,97356.72
2022-09-20T07:54:09.816Z,97353.59
2022-09-20T07:56:42.348Z,97354.84
2022-09-20T07:59:14.781Z,97350.58
2022-09-20T08:01:43.451Z,97348.81
2022-09-20T08:04:11.263Z,97349.03
2022-09-20T08:06:42.447Z,97351.99
2022-09-20T08:09:11.509Z,97341.69
2022-09-20T08:11:40.005Z,97349.03
2022-09-20T08:14:11.167Z,97352.68
2022-09-20T08:16:41.206Z,97351.69
2022-09-20T08:19:18.820Z,97348.30
2022-09-20T08:21:50.419Z,97348.36
2022-09-20T08:24:19.673Z,97350.56
2022-09-20T08:26:47.895Z,97349.86
2022-09-20T08:31:49.133Z,97346.38
2022-09-20T08:34:17.894Z,97346.95
2022-09-20T08:37:01.510Z,97341.20
2022-09-20T08:42:42.117Z,97341.20
2022-09-20T08:45:22.344Z,97344.27
2022-09-20T08:47:59.642Z,97344.73
2022-09-20T08:50:31.313Z,97342.56
2022-09-20T08:53:02.599Z,97340.63
2022-09-20T08:55:36.494Z,97335.59
2022-09-20T08:58:06.161Z,97344.50
2022-09-20T09:00:33.936Z,97340.00
2022-09-20T09:03:05.041Z,97336.84
2022-09-20T09:05:47.231Z,97338.51
2022-09-20T09:08:20.839Z,97340.20
2022-09-20T09:10:53.664Z,97338.62
2022-09-20T09:13:39.045Z,97342.82
2022-09-20T09:16:24.657Z,97338.00
2022-09-20T10:40:11.079Z,97341.52
2022-09-20T10:43:05.946Z,97337.62
2022-09-20T10:46:27.645Z,97333.75
2022-09-20T10:48:51.484Z,97333.63
2022-09-20T10:51:28.507Z,97338.16
2022-09-20T10:54:11.754Z,97345.88
2022-09-20T10:56:48.640Z,97348.63
2022-09-20T10:59:32.130Z,97343.93
2022-09-20T11:02:25.629Z,97343.48
2022-09-20T11:05:30.294Z,97350.31
2022-09-20T11:08:07.125Z,97355.87
2022-09-20T11:10:53.098Z,97353.96
2022-09-20T11:13:51.896Z,97357.91
2022-09-20T11:16:41.515Z,97352.30
2022-09-20T11:19:34.106Z,97345.01
2022-09-20T11:22:11.288Z,97355.47
2022-09-20T11:24:47.454Z,97354.22
2022-09-20T11:27:24.798Z,97345.91
2022-09-20T11:30:20.226Z,97348.50
2022-09-20T11:32:52.514Z,97344.00
2022-09-20T11:35:35.217Z,97351.53
2022-09-20T11:38:15.992Z,97358.48
2022-09-20T11:40:53.278Z,97351.17
2022-09-20T11:43:22.082Z,97354.55
2022-09-20T11:45:53.841Z,97354.55
2022-09-20T11:48:24.489Z,97348.72
2022-09-20T11:51:22.292Z,97353.55
2022-09-20T11:54:16.033Z,97349.72
2022-09-20T11:56:55.433Z,97343.55
2022-09-20T11:59:29.376Z,97341.95
2022-09-20T12:01:59.794Z,97342.17
2022-09-20T12:04:33.347Z,97341.92
2022-09-20T12:07:12.488Z,97343.26
2022-09-20T12:09:42.543Z,97341.97
2022-09-20T12:12:27.298Z,97336.58
2022-09-20T12:14:57.924Z,97340.41
2022-09-20T12:17:46.276Z,97340.31
2022-09-20T12:20:34.775Z,97339.17
2022-09-20T12:23:41.919Z,97339.15
2022-09-20T12:26:13.712Z,97340.64
2022-09-20T12:28:52.871Z,97337.62
2022-09-20T12:31:33.777Z,97339.59
2022-09-20T12:34:11.368Z,97341.97
2022-09-20T12:36:47.024Z,97343.53
2022-09-20T12:39:24.213Z,97339.27
2022-09-20T12:42:01.635Z,97341.98
2022-09-20T12:44:36.039Z,97340.42
2022-09-20T12:47:09.321Z,97331.37
2022-09-20T12:50:07.503Z,97337.53
2022-09-20T12:52:50.452Z,97331.74
2022-09-20T12:55:49.839Z,97328.92
2022-09-20T12:58:22.604Z,97337.70
2022-09-20T13:01:00.040Z,97341.75
2022-09-20T13:03:35.927Z,97333.87
2022-09-20T13:06:13.126Z,97331.74
2022-09-20T13:09:09.979Z,97329.40
2022-09-20T13:11:45.421Z,97336.16
2022-09-20T13:14:23.074Z,97332.64
2022-09-20T13:16:53.885Z,97335.80
2022-09-20T13:19:35.578Z,97329.61
2022-09-20T13:22:28.310Z,97328.50
2022-09-20T13:24:59.773Z,97325.87
2022-09-20T13:27:33.997Z,97331.17
2022-09-20T13:30:23.633Z,97326.69
2022-09-20T13:32:56.513Z,97326.77
2022-09-20T13:35:27.544Z,97331.44
2022-09-20T13:38:04.524Z,97327.00
2022-09-20T13:40:39.936Z,97321.77
2022-09-20T13:43:23.818Z,97322.95
2022-09-20T13:45:43.813Z,97316.24
2022-09-20T13:48:11.267Z,97323.88
2022-09-20T13:50:44.895Z,97330.09
2022-09-20T13:53:39.476Z,97325.95
2022-09-20T13:55:47.903Z,97326.85
2022-09-20T13:58:22.168Z,97323.76
2022-09-20T14:00:54.726Z,97325.23
2022-09-20T14:03:26.132Z,97321.39
2022-09-20T14:06:02.697Z,97323.97
2022-09-20T14:08:36.531Z,97317.17
2022-09-20T14:11:10.403Z,97314.98
2022-09-20T14:13:40.194Z,97312.06
2022-09-20T14:16:08.711Z,97311.45
2022-09-20T14:18:39.141Z,97314.91
2022-09-20T14:21:10.719Z,97314.84
2022-09-20T14:23:52.985Z,97312.94
2022-09-20T14:26:23.624Z,97316.55
2022-09-20T14:28:51.552Z,97322.62
2022-09-20T14:31:25.375Z,97326.72
2022-09-20T14:33:55.651Z,97320.84
2022-09-20T14:36:25.807Z,97321.56
2022-09-20T14:38:56.649Z,97324.93
2022-09-20T14:41:28.365Z,97325.77
2022-09-20T14:43:58.380Z,97326.75
2022-09-20T14:46:33.380Z,97328.47
2022-09-20T14:49:27.791Z,97327.51
2022-09-20T14:52:28.471Z,97331.36
2022-09-20T14:55:12.156Z,97332.63
2022-09-20T14:57:41.668Z,97328.98
2022-09-20T15:00:18.104Z,97330.45
2022-09-20T15:02:47.747Z,97343.06
2022-09-20T15:05:26.724Z,97342.06
2022-09-20T15:07:56.345Z,97341.95
2022-09-20T15:10:24.617Z,97346.81
2022-09-20T15:12:52.324Z,97345.35
2022-09-20T15:15:20.040Z,97346.48
2022-09-20T15:17:50.083Z,97346.02
2022-09-20T15:20:24.242Z,97348.72
2022-09-20T15:22:52.020Z,97351.20
2022-09-20T15:25:22.262Z,97351.52
2022-09-20T15:27:53.380Z,97351.88
2022-09-20T15:30:21.884Z,97347.50
2022-09-20T15:32:54.002Z,97354.34
2022-09-20T15:35:21.527Z,97367.25
2022-09-20T15:37:50.915Z,97363.76
2022-09-20T15:40:20.211Z,97366.59
2022-09-20T15:42:47.973Z,97369.48
2022-09-20T15:45:15.623Z,97369.84
2022-09-20T15:47:46.301Z,97363.64
2022-09-20T15:50:13.717Z,97363.47
2022-09-20T15:52:41.839Z,97359.97
2022-09-20T15:55:09.570Z,97365.34
2022-09-20T15:57:38.970Z,97369.05
2022-09-20T16:00:09.144Z,97371.40
2022-09-20T16:02:37.353Z,97373.97
2022-09-20T16:05:09.557Z,97372.03
2022-09-20T16:07:36.886Z,97380.33
2022-09-20T16:10:05.237Z,97374.57
2022-09-20T16:12:32.825Z,97382.53
2022-09-20T16:15:00.269Z,97381.40
2022-09-20T16:17:46.126Z,97382.71
2022-09-20T16:20:13.534Z,97378.45
2022-09-20T16:22:41.863Z,97380.67
2022-09-20T16:25:09.480Z,97385.93
2022-09-20T16:27:37.087Z,97391.97
2022-09-20T16:30:05.302Z,97399.09
2022-09-20T16:32:32.872Z,97398.83
2022-09-20T16:35:02.026Z,97396.13
2022-09-20T16:37:31.336Z,97400.12
2022-09-20T16:39:59.679Z,97404.67
2022-09-20T16:42:27.120Z,97411.34
2022-09-20T16:44:54.515Z,97411.33
2022-09-20T16:47:23.621Z,97414.75
2022-09-20T16:49:53.079Z,97412.92
2022-09-20T16:52:22.649Z,97411.13
2022-09-20T16:54:50.062Z,97415.81
2022-09-20T16:57:18.265Z,97419.38
2022-09-20T16:59:45.991Z,97415.31
2022-09-20T17:02:14.154Z,97422.67
2022-09-20T17:07:56.489Z,97420.86
2022-09-20T17:10:53.922Z,97428.00
2022-09-20T17:11:23.981Z,97425.67
2022-09-20T17:13:34.217Z,97427.91
2022-09-20T17:16:12.394Z,97428.66
2022-09-20T17:18:45.599Z,97426.91
2022-09-20T17:21:15.773Z,97429.80
2022-09-20T17:24:00.253Z,97437.16
2022-09-20T17:26:32.426Z,97443.31
2022-09-20T17:29:01.535Z,97437.94
2022-09-20T17:31:31.571Z,97439.36
2022-09-20T17:34:07.612Z,97437.56
2022-09-20T17:36:43.428Z,97443.17
2022-09-20T17:39:12.971Z,97440.25
2022-09-20T17:41:44.262Z,97441.11
2022-09-20T17:44:11.974Z,97442.16
2022-09-20T17:46:44.644Z,97441.45
2022-09-20T17:49:14.633Z,97446.83
2022-09-20T17:51:48.228Z,97452.77
2022-09-20T17:54:17.947Z,97458.14
2022-09-20T17:56:48.421Z,97451.42
2022-09-20T17:59:17.308Z,97454.89
2022-09-20T18:01:47.323Z,97454.33
2022-09-20T18:04:15.351Z,97457.25
2022-09-20T18:06:47.135Z,97459.63
2022-09-20T18:09:18.299Z,97465.42
2022-09-20T18:11:49.095Z,97464.30
2022-09-20T18:14:19.836Z,97473.56
2022-09-20T18:16:47.516Z,97465.83
2022-09-20T18:19:15.595Z,97469.30
2022-09-20T18:21:43.677Z,97470.42
2022-09-20T18:24:11.592Z,97471.20
2022-09-20T18:26:39.386Z,97473.66
2022-09-20T18:29:12.847Z,97471.50
2022-09-20T18:31:46.918Z,97479.11
2022-09-20T18:34:17.726Z,97473.03
2022-09-20T18:36:49.266Z,97475.56
2022-09-20T18:39:26.654Z,97472.23
2022-09-20T18:41:54.619Z,97472.48
2022-09-20T18:44:23.190Z,97475.35
2022-09-20T18:46:52.788Z,97481.98
2022-09-20T18:49:21.353Z,97481.89
2022-09-20T18:51:50.009Z,97478.89
2022-09-20T18:54:18.580Z,97482.61
2022-09-20T18:56:50.809Z,97477.63
2022-09-20T18:59:24.620Z,97479.14
2022-09-20T19:02:01.452Z,97477.94
2022-09-20T19:04:52.736Z,97484.55
2022-09-20T19:07:30.889Z,97483.14
2022-09-20T19:10:08.533Z,97484.06
2022-09-20T19:13:13.023Z,97487.46
2022-09-20T19:16:05.882Z,97481.77
2022-09-20T19:19:06.811Z,97483.06
2022-09-20T19:21:47.069Z,97482.27
2022-09-20T19:24:18.135Z,97479.55
2022-09-20T19:26:46.554Z,97488.83
2022-09-20T19:29:24.908Z,97491.59
2022-09-20T19:31:55.184Z,97499.53
2022-09-20T19:34:25.920Z,97498.86
2022-09-20T19:37:18.288Z,97500.37
2022-09-20T19:39:55.302Z,97500.53
2022-09-20T19:42:33.414Z,97504.25
2022-09-20T19:45:43.186Z,97505.06
2022-09-20T19:48:23.323Z,97501.77
2022-09-20T19:50:54.522Z,97499.83
2022-09-20T19:53:25.366Z,97501.30
2022-09-20T19:56:02.041Z,97502.70
2022-09-20T19:58:29.957Z,97505.52
2022-09-20T20:00:58.353Z,97502.10
2022-09-20T20:03:28.786Z,97507.52
2022-09-20T20:06:18.030Z,97510.80
2022-09-20T20:08:57.302Z,97513.29
2022-09-20T20:11:31.800Z,97512.55
2022-09-20T20:14:12.235Z,97516.39
2022-09-20T20:16:52.360Z,97514.07
2022-09-20T20:19:40.038Z,97507.19
2022-09-20T20:22:20.111Z,97515.28
2022-09-20T20:24:53.497Z,97513.52
2022-09-20T20:27:21.340Z,97519.70
2022-09-20T20:29:49.054Z,97519.33
2022-09-20T20:32:16.969Z,97519.14
2022-09-20T20:34:44.737Z,97518.40
2022-09-20T20:37:12.758Z,97522.22
2022-09-20T20:39:40.473Z,97521.80
2022-09-20T20:42:09.623Z,97521.10
2022-09-20T20:44:37.461Z,97522.61
2022-09-20T20:47:07.067Z,97527.57
2022-09-20T20:49:35.515Z,97526.59
2022-09-20T20:52:04.551Z,97529.62
2022-09-20T20:54:34.738Z,97529.18
2022-09-20T20:57:02.853Z,97537.80
2022-09-20T20:59:30.561Z,97538.08
2022-09-20T21:01:58.446Z,97539.30
2022-09-20T21:04:26.914Z,97540.16
2022-09-20T21:06:54.884Z,97538.39
2022-09-20T21:09:22.982Z,97540.31
2022-09-20T21:11:50.928Z,97538.97
2022-09-20T21:14:18.381Z,97537.20
2022-09-20T21:16:45.891Z,97535.59
2022-09-20T21:19:15.255Z,97539.41
2022-09-20T21:21:44.682Z,97538.96
2022-09-20T21:24:17.036Z,97543.52
2022-09-20T21:26:46.086Z,97544.89
2022-09-20T21:29:15.744Z,97547.09
2022-09-20T21:31:45.245Z,97548.46
2022-09-20T21:34:14.759Z,97544.25
2022-09-20T21:36:44.107Z,97543.25
2022-09-20T21:39:11.738Z,97543.84
2022-09-20T21:41:39.669Z,97539.32
2022-09-20T21:44:09.392Z,97544.97
2022-09-20T21:46:39.720Z,97539.97
2022-09-20T21:49:09.246Z,97539.77
2022-09-20T21:51:39.722Z,97537.67
2022-09-20T21:54:07.358Z,97541.96
2022-09-20T21:56:36.365Z,97537.75
2022-09-20T21:59:06.621Z,97541.82
2022-09-20T22:01:36.911Z,97545.08
2022-09-20T22:04:06.512Z,97545.11
2022-09-20T22:06:36.630Z,97552.09
2022-09-20T22:09:07.801Z,97552.13
2022-09-20T22:11:41.035Z,97556.16
2022-09-20T22:14:09.892Z,97556.47
2022-09-20T22:16:40.058Z,97559.14
2022-09-20T22:19:09.327Z,97556.47
2022-09-20T22:21:38.915Z,97556.19
2022-09-20T22:24:08.594Z,97559.44
2022-09-20T22:26:38.609Z,97561.36
2022-09-20T22:29:06.352Z,97565.16
2022-09-20T22:31:36.214Z,97564.64
2022-09-20T22:34:05.888Z,97567.61
2022-09-20T22:36:35.979Z,97567.40
2022-09-20T22:39:06.844Z,97569.86
2022-09-20T22:41:35.599Z,97565.58
2022-09-20T22:44:03.917Z,97567.19
2022-09-20T22:46:32.480Z,97567.70
2022-09-20T22:49:00.143Z,97566.91
2022-09-20T22:51:31.758Z,97568.25
2022-09-20T22:54:00.475Z,97565.03
2022-09-20T22:56:31.189Z,97565.00
2022-09-20T22:59:02.202Z,97571.34
2022-09-20T23:01:32.041Z,97568.37
2022-09-20T23:04:03.437Z,97566.42
2022-09-20T23:06:33.389Z,97567.45
2022-09-20T23:09:01.873Z,97572.73
2022-09-20T23:11:30.159Z,97568.42
2022-09-20T23:13:59.628Z,97566.52
2022-09-20T23:16:32.136Z,97562.23
2022-09-20T23:19:00.822Z,97565.66
2022-09-20T23:21:29.232Z,97564.22
2022-09-20T23:23:59.190Z,97563.88
2022-09-20T23:26:29.247Z,97569.16
2022-09-20T23:28:58.772Z,97563.51
2022-09-20T23:31:27.783Z,97569.91
2022-09-20T23:33:57.338Z,97562.14
2022-09-20T23:36:26.455Z,97565.56
2022-09-20T23:38:54.061Z,97564.23
2022-09-20T23:41:22.962Z,97565.56
2022-09-20T23:43:50.551Z,97560.16
2022-09-20T23:46:19.225Z,97559.33
2022-09-20T23:48:46.948Z,97566.77
2022-09-20T23:51:16.967Z,97563.51
2022-09-20T23:53:44.779Z,97561.31
2022-09-20T23:56:13.103Z,97565.59
2022-09-20T23:58:42.514Z,97553.26
